sensor_id;sensor_type;location;lat;lon;timestamp;P1;durP1;ratioP1;P2;durP2;ratioP2
54705;SDS011;40603;48.774;8.916;2022-12-24T00:00:57;15.95;;;1.45;;
54705;SDS011;40603;48.774;8.916;2022-12-24T00:03:22;9.90;;;1.52;;
54705;SDS011;40603;48.774;8.916;2022-12-24T00:05:47;7.80;;;1.50;;
54705;SDS011;40603;48.774;8.916;2022-12-24T00:08:13;7.65;;;1.38;;
54705;SDS011;40603;48.774;8.916;2022-12-24T00:10:39;7.97;;;1.70;;
54705;SDS011;40603;48.774;8.916;2022-12-24T00:13:04;7.32;;;1.52;;
54705;SDS011;40603;48.774;8.916;2022-12-24T00:15:29;6.60;;;1.23;;
54705;SDS011;40603;48.774;8.916;2022-12-24T00:17:54;11.23;;;1.70;;
54705;SDS011;40603;48.774;8.916;2022-12-24T00:20:20;4.97;;;1.27;;
54705;SDS011;40603;48.774;8.916;2022-12-24T00:22:45;3.08;;;1.52;;
54705;SDS011;40603;48.774;8.916;2022-12-24T00:25:10;10.23;;;1.17;;
54705;SDS011;40603;48.774;8.916;2022-12-24T00:27:36;7.10;;;1.40;;
54705;SDS011;40603;48.774;8.916;2022-12-24T00:30:01;5.90;;;1.20;;
54705;SDS011;40603;48.774;8.916;2022-12-24T00:32:26;6.38;;;1.45;;
54705;SDS011;40603;48.774;8.916;2022-12-24T00:34:52;6.15;;;0.90;;
54705;SDS011;40603;48.774;8.916;2022-12-24T00:37:17;11.00;;;1.40;;
54705;SDS011;40603;48.774;8.916;2022-12-24T00:39:42;4.97;;;1.10;;
54705;SDS011;40603;48.774;8.916;2022-12-24T00:42:08;7.97;;;1.42;;
54705;SDS011;40603;48.774;8.916;2022-12-24T00:44:33;8.98;;;1.77;;
54705;SDS011;40603;48.774;8.916;2022-12-24T00:46:58;12.73;;;2.35;;
54705;SDS011;40603;48.774;8.916;2022-12-24T00:49:23;11.60;;;1.75;;
54705;SDS011;40603;48.774;8.916;2022-12-24T00:51:49;4.80;;;1.17;;
54705;SDS011;40603;48.774;8.916;2022-12-24T00:54:14;9.48;;;1.63;;
54705;SDS011;40603;48.774;8.916;2022-12-24T00:56:40;9.57;;;1.58;;
54705;SDS011;40603;48.774;8.916;2022-12-24T00:59:05;13.45;;;1.25;;
54705;SDS011;40603;48.774;8.916;2022-12-24T01:01:30;5.32;;;1.35;;
54705;SDS011;40603;48.774;8.916;2022-12-24T01:03:55;5.25;;;1.30;;
54705;SDS011;40603;48.774;8.916;2022-12-24T01:06:41;8.30;;;1.70;;
54705;SDS011;40603;48.774;8.916;2022-12-24T01:09:06;11.25;;;1.60;;
54705;SDS011;40603;48.774;8.916;2022-12-24T01:11:31;6.72;;;1.90;;
54705;SDS011;40603;48.774;8.916;2022-12-24T01:13:57;14.77;;;1.90;;
54705;SDS011;40603;48.774;8.916;2022-12-24T01:16:22;5.82;;;1.67;;
54705;SDS011;40603;48.774;8.916;2022-12-24T01:18:47;5.80;;;1.83;;
54705;SDS011;40603;48.774;8.916;2022-12-24T01:21:13;7.60;;;1.55;;
54705;SDS011;40603;48.774;8.916;2022-12-24T01:23:39;6.97;;;1.50;;
54705;SDS011;40603;48.774;8.916;2022-12-24T01:26:04;6.25;;;1.40;;
54705;SDS011;40603;48.774;8.916;2022-12-24T01:28:30;7.97;;;1.58;;
54705;SDS011;40603;48.774;8.916;2022-12-24T01:30:55;7.38;;;2.25;;
54705;SDS011;40603;48.774;8.916;2022-12-24T01:33:21;9.75;;;1.98;;
54705;SDS011;40603;48.774;8.916;2022-12-24T01:35:46;6.10;;;1.83;;
54705;SDS011;40603;48.774;8.916;2022-12-24T01:38:11;7.55;;;1.85;;
54705;SDS011;40603;48.774;8.916;2022-12-24T01:40:38;10.90;;;2.42;;
54705;SDS011;40603;48.774;8.916;2022-12-24T01:43:23;11.82;;;1.67;;
54705;SDS011;40603;48.774;8.916;2022-12-24T01:45:52;10.70;;;1.92;;
54705;SDS011;40603;48.774;8.916;2022-12-24T01:48:25;8.07;;;1.48;;
54705;SDS011;40603;48.774;8.916;2022-12-24T01:50:54;7.75;;;1.70;;
54705;SDS011;40603;48.774;8.916;2022-12-24T01:55:48;9.48;;;1.50;;
54705;SDS011;40603;48.774;8.916;2022-12-24T01:58:14;7.22;;;1.65;;
54705;SDS011;40603;48.774;8.916;2022-12-24T02:00:40;9.65;;;1.70;;
54705;SDS011;40603;48.774;8.916;2022-12-24T02:03:05;11.07;;;1.88;;
54705;SDS011;40603;48.774;8.916;2022-12-24T02:05:50;8.00;;;1.50;;
54705;SDS011;40603;48.774;8.916;2022-12-24T02:08:16;9.93;;;1.60;;
54705;SDS011;40603;48.774;8.916;2022-12-24T02:10:43;8.93;;;2.05;;
54705;SDS011;40603;48.774;8.916;2022-12-24T02:13:08;12.45;;;2.70;;
54705;SDS011;40603;48.774;8.916;2022-12-24T02:15:41;7.32;;;1.65;;
54705;SDS011;40603;48.774;8.916;2022-12-24T02:18:28;11.20;;;1.80;;
54705;SDS011;40603;48.774;8.916;2022-12-24T02:21:05;15.35;;;1.92;;
54705;SDS011;40603;48.774;8.916;2022-12-24T02:27:05;5.72;;;1.90;;
54705;SDS011;40603;48.774;8.916;2022-12-24T02:32:26;6.47;;;1.70;;
54705;SDS011;40603;48.774;8.916;2022-12-24T02:37:42;12.00;;;1.60;;
54705;SDS011;40603;48.774;8.916;2022-12-24T02:40:16;12.23;;;2.35;;
54705;SDS011;40603;48.774;8.916;2022-12-24T02:42:45;18.23;;;2.28;;
54705;SDS011;40603;48.774;8.916;2022-12-24T02:45:15;9.07;;;2.08;;
54705;SDS011;40603;48.774;8.916;2022-12-24T02:47:51;9.38;;;2.08;;
54705;SDS011;40603;48.774;8.916;2022-12-24T02:50:16;10.35;;;1.92;;
54705;SDS011;40603;48.774;8.916;2022-12-24T02:52:43;11.80;;;2.30;;
54705;SDS011;40603;48.774;8.916;2022-12-24T02:55:15;10.05;;;1.80;;
54705;SDS011;40603;48.774;8.916;2022-12-24T02:57:45;7.35;;;2.20;;
54705;SDS011;40603;48.774;8.916;2022-12-24T03:00:18;11.02;;;2.72;;
54705;SDS011;40603;48.774;8.916;2022-12-24T03:06:05;8.60;;;1.80;;
54705;SDS011;40603;48.774;8.916;2022-12-24T03:11:37;12.65;;;2.03;;
54705;SDS011;40603;48.774;8.916;2022-12-24T03:14:06;11.88;;;2.10;;
54705;SDS011;40603;48.774;8.916;2022-12-24T03:16:31;11.93;;;1.92;;
54705;SDS011;40603;48.774;8.916;2022-12-24T03:18:56;10.30;;;2.05;;
54705;SDS011;40603;48.774;8.916;2022-12-24T03:21:24;12.93;;;2.10;;
54705;SDS011;40603;48.774;8.916;2022-12-24T03:23:52;8.10;;;1.92;;
54705;SDS011;40603;48.774;8.916;2022-12-24T03:26:18;18.27;;;2.20;;
54705;SDS011;40603;48.774;8.916;2022-12-24T03:28:44;11.82;;;1.65;;
54705;SDS011;40603;48.774;8.916;2022-12-24T03:31:10;12.18;;;1.98;;
54705;SDS011;40603;48.774;8.916;2022-12-24T03:33:36;12.45;;;1.98;;
54705;SDS011;40603;48.774;8.916;2022-12-24T03:36:02;13.38;;;2.40;;
54705;SDS011;40603;48.774;8.916;2022-12-24T03:38:28;9.10;;;2.50;;
54705;SDS011;40603;48.774;8.916;2022-12-24T03:40:53;12.93;;;2.15;;
54705;SDS011;40603;48.774;8.916;2022-12-24T03:43:19;10.05;;;2.35;;
54705;SDS011;40603;48.774;8.916;2022-12-24T03:45:44;10.05;;;1.75;;
54705;SDS011;40603;48.774;8.916;2022-12-24T03:48:09;9.30;;;2.00;;
54705;SDS011;40603;48.774;8.916;2022-12-24T03:50:35;10.07;;;1.80;;
54705;SDS011;40603;48.774;8.916;2022-12-24T03:53:00;10.23;;;1.92;;
54705;SDS011;40603;48.774;8.916;2022-12-24T03:55:25;12.57;;;2.65;;
54705;SDS011;40603;48.774;8.916;2022-12-24T03:57:51;8.75;;;1.77;;
54705;SDS011;40603;48.774;8.916;2022-12-24T04:00:16;17.25;;;2.33;;
54705;SDS011;40603;48.774;8.916;2022-12-24T04:02:42;8.10;;;1.50;;
54705;SDS011;40603;48.774;8.916;2022-12-24T04:05:07;20.98;;;3.95;;
54705;SDS011;40603;48.774;8.916;2022-12-24T04:07:37;10.25;;;1.95;;
54705;SDS011;40603;48.774;8.916;2022-12-24T04:10:02;11.93;;;1.98;;
54705;SDS011;40603;48.774;8.916;2022-12-24T04:12:28;7.78;;;1.70;;
54705;SDS011;40603;48.774;8.916;2022-12-24T04:14:53;12.40;;;2.40;;
54705;SDS011;40603;48.774;8.916;2022-12-24T04:17:18;12.18;;;1.92;;
54705;SDS011;40603;48.774;8.916;2022-12-24T04:19:44;12.43;;;1.70;;
54705;SDS011;40603;48.774;8.916;2022-12-24T04:22:09;13.50;;;2.00;;
54705;SDS011;40603;48.774;8.916;2022-12-24T04:24:34;8.13;;;2.03;;
54705;SDS011;40603;48.774;8.916;2022-12-24T04:27:00;13.18;;;2.15;;
54705;SDS011;40603;48.774;8.916;2022-12-24T04:29:25;12.18;;;2.30;;
54705;SDS011;40603;48.774;8.916;2022-12-24T04:31:50;9.63;;;1.27;;
54705;SDS011;40603;48.774;8.916;2022-12-24T04:34:16;15.25;;;2.05;;
54705;SDS011;40603;48.774;8.916;2022-12-24T04:36:41;9.95;;;2.13;;
54705;SDS011;40603;48.774;8.916;2022-12-24T04:39:06;11.35;;;1.77;;
54705;SDS011;40603;48.774;8.916;2022-12-24T04:41:31;11.73;;;2.17;;
54705;SDS011;40603;48.774;8.916;2022-12-24T04:43:57;6.32;;;1.48;;
54705;SDS011;40603;48.774;8.916;2022-12-24T04:46:24;8.90;;;1.52;;
54705;SDS011;40603;48.774;8.916;2022-12-24T04:48:54;10.25;;;1.83;;
54705;SDS011;40603;48.774;8.916;2022-12-24T04:51:20;11.23;;;1.70;;
54705;SDS011;40603;48.774;8.916;2022-12-24T04:53:45;11.70;;;2.35;;
54705;SDS011;40603;48.774;8.916;2022-12-24T04:56:14;10.70;;;2.45;;
54705;SDS011;40603;48.774;8.916;2022-12-24T04:58:44;13.70;;;2.30;;
54705;SDS011;40603;48.774;8.916;2022-12-24T05:01:14;11.38;;;1.77;;
54705;SDS011;40603;48.774;8.916;2022-12-24T05:03:44;12.23;;;2.20;;
54705;SDS011;40603;48.774;8.916;2022-12-24T05:06:11;7.60;;;1.85;;
54705;SDS011;40603;48.774;8.916;2022-12-24T05:08:38;10.90;;;1.95;;
54705;SDS011;40603;48.774;8.916;2022-12-24T05:11:04;14.10;;;2.22;;
54705;SDS011;40603;48.774;8.916;2022-12-24T05:13:30;13.02;;;1.90;;
54705;SDS011;40603;48.774;8.916;2022-12-24T05:15:55;9.63;;;2.00;;
54705;SDS011;40603;48.774;8.916;2022-12-24T05:18:21;14.00;;;2.15;;
54705;SDS011;40603;48.774;8.916;2022-12-24T05:20:46;13.55;;;1.95;;
54705;SDS011;40603;48.774;8.916;2022-12-24T05:23:18;7.65;;;1.92;;
54705;SDS011;40603;48.774;8.916;2022-12-24T05:26:02;8.90;;;1.73;;
54705;SDS011;40603;48.774;8.916;2022-12-24T05:28:51;12.82;;;2.17;;
54705;SDS011;40603;48.774;8.916;2022-12-24T05:31:17;6.72;;;1.70;;
54705;SDS011;40603;48.774;8.916;2022-12-24T05:33:43;11.80;;;2.47;;
54705;SDS011;40603;48.774;8.916;2022-12-24T05:36:08;8.60;;;1.65;;
54705;SDS011;40603;48.774;8.916;2022-12-24T05:38:33;10.52;;;1.92;;
54705;SDS011;40603;48.774;8.916;2022-12-24T05:40:59;10.07;;;1.88;;
54705;SDS011;40603;48.774;8.916;2022-12-24T05:43:24;14.60;;;1.98;;
54705;SDS011;40603;48.774;8.916;2022-12-24T05:45:50;8.70;;;1.98;;
54705;SDS011;40603;48.774;8.916;2022-12-24T05:48:15;13.73;;;2.28;;
54705;SDS011;40603;48.774;8.916;2022-12-24T05:50:40;11.60;;;1.90;;
54705;SDS011;40603;48.774;8.916;2022-12-24T05:53:06;10.98;;;1.98;;
54705;SDS011;40603;48.774;8.916;2022-12-24T05:55:31;9.95;;;1.63;;
54705;SDS011;40603;48.774;8.916;2022-12-24T05:57:57;9.63;;;1.98;;
54705;SDS011;40603;48.774;8.916;2022-12-24T06:00:22;8.75;;;1.98;;
54705;SDS011;40603;48.774;8.916;2022-12-24T06:02:47;16.55;;;2.33;;
54705;SDS011;40603;48.774;8.916;2022-12-24T06:05:13;9.30;;;1.80;;
54705;SDS011;40603;48.774;8.916;2022-12-24T06:07:38;12.80;;;2.40;;
54705;SDS011;40603;48.774;8.916;2022-12-24T06:10:04;13.93;;;1.77;;
54705;SDS011;40603;48.774;8.916;2022-12-24T06:12:30;17.25;;;2.75;;
54705;SDS011;40603;48.774;8.916;2022-12-24T06:14:55;15.75;;;2.42;;
54705;SDS011;40603;48.774;8.916;2022-12-24T06:17:20;14.10;;;1.98;;
54705;SDS011;40603;48.774;8.916;2022-12-24T06:19:45;12.10;;;2.10;;
54705;SDS011;40603;48.774;8.916;2022-12-24T06:22:11;9.82;;;1.95;;
54705;SDS011;40603;48.774;8.916;2022-12-24T06:24:36;8.07;;;2.15;;
54705;SDS011;40603;48.774;8.916;2022-12-24T06:27:01;15.13;;;2.75;;
54705;SDS011;40603;48.774;8.916;2022-12-24T06:29:27;9.13;;;2.25;;
54705;SDS011;40603;48.774;8.916;2022-12-24T06:31:52;12.85;;;2.50;;
54705;SDS011;40603;48.774;8.916;2022-12-24T06:34:18;14.82;;;2.30;;
54705;SDS011;40603;48.774;8.916;2022-12-24T06:36:43;11.93;;;2.30;;
54705;SDS011;40603;48.774;8.916;2022-12-24T06:39:08;8.98;;;1.50;;
54705;SDS011;40603;48.774;8.916;2022-12-24T06:41:33;15.38;;;2.22;;
54705;SDS011;40603;48.774;8.916;2022-12-24T06:43:59;14.73;;;2.22;;
54705;SDS011;40603;48.774;8.916;2022-12-24T06:46:24;17.27;;;1.98;;
54705;SDS011;40603;48.774;8.916;2022-12-24T06:48:49;11.55;;;2.03;;
54705;SDS011;40603;48.774;8.916;2022-12-24T06:51:15;6.90;;;1.38;;
54705;SDS011;40603;48.774;8.916;2022-12-24T06:53:43;13.73;;;1.92;;
54705;SDS011;40603;48.774;8.916;2022-12-24T06:56:10;10.70;;;1.90;;
54705;SDS011;40603;48.774;8.916;2022-12-24T06:58:37;9.07;;;2.08;;
54705;SDS011;40603;48.774;8.916;2022-12-24T07:01:05;14.82;;;2.17;;
54705;SDS011;40603;48.774;8.916;2022-12-24T07:03:32;12.18;;;1.80;;
54705;SDS011;40603;48.774;8.916;2022-12-24T07:05:58;13.70;;;2.40;;
54705;SDS011;40603;48.774;8.916;2022-12-24T07:08:24;14.32;;;2.00;;
54705;SDS011;40603;48.774;8.916;2022-12-24T07:10:50;8.38;;;2.00;;
54705;SDS011;40603;48.774;8.916;2022-12-24T07:13:16;14.02;;;2.53;;
54705;SDS011;40603;48.774;8.916;2022-12-24T07:15:41;13.55;;;2.95;;
54705;SDS011;40603;48.774;8.916;2022-12-24T07:18:07;11.70;;;2.25;;
54705;SDS011;40603;48.774;8.916;2022-12-24T07:20:32;12.75;;;3.17;;
54705;SDS011;40603;48.774;8.916;2022-12-24T07:22:57;13.77;;;2.28;;
54705;SDS011;40603;48.774;8.916;2022-12-24T07:25:22;12.80;;;2.95;;
54705;SDS011;40603;48.774;8.916;2022-12-24T07:27:48;13.98;;;2.85;;
54705;SDS011;40603;48.774;8.916;2022-12-24T07:30:13;9.75;;;2.28;;
54705;SDS011;40603;48.774;8.916;2022-12-24T07:32:39;13.68;;;2.97;;
54705;SDS011;40603;48.774;8.916;2022-12-24T07:35:04;7.72;;;2.50;;
54705;SDS011;40603;48.774;8.916;2022-12-24T07:37:30;9.95;;;1.70;;
54705;SDS011;40603;48.774;8.916;2022-12-24T07:39:55;11.13;;;2.13;;
54705;SDS011;40603;48.774;8.916;2022-12-24T07:42:21;11.18;;;2.00;;
54705;SDS011;40603;48.774;8.916;2022-12-24T07:44:46;10.23;;;2.20;;
54705;SDS011;40603;48.774;8.916;2022-12-24T07:47:11;10.32;;;1.88;;
54705;SDS011;40603;48.774;8.916;2022-12-24T07:49:37;14.27;;;2.33;;
54705;SDS011;40603;48.774;8.916;2022-12-24T07:52:02;11.25;;;2.13;;
54705;SDS011;40603;48.774;8.916;2022-12-24T07:54:28;10.82;;;2.53;;
54705;SDS011;40603;48.774;8.916;2022-12-24T07:56:53;8.80;;;2.05;;
54705;SDS011;40603;48.774;8.916;2022-12-24T07:59:19;13.88;;;2.13;;
54705;SDS011;40603;48.774;8.916;2022-12-24T08:01:45;5.97;;;1.83;;
54705;SDS011;40603;48.774;8.916;2022-12-24T08:04:19;11.88;;;2.28;;
54705;SDS011;40603;48.774;8.916;2022-12-24T08:06:47;7.88;;;1.85;;
54705;SDS011;40603;48.774;8.916;2022-12-24T08:09:12;9.88;;;2.00;;
54705;SDS011;40603;48.774;8.916;2022-12-24T08:11:39;13.02;;;2.05;;
54705;SDS011;40603;48.774;8.916;2022-12-24T08:14:04;11.52;;;2.33;;
54705;SDS011;40603;48.774;8.916;2022-12-24T08:16:29;9.55;;;2.65;;
54705;SDS011;40603;48.774;8.916;2022-12-24T08:18:55;18.40;;;2.28;;
54705;SDS011;40603;48.774;8.916;2022-12-24T08:21:20;12.52;;;2.50;;
54705;SDS011;40603;48.774;8.916;2022-12-24T08:23:45;9.57;;;2.30;;
54705;SDS011;40603;48.774;8.916;2022-12-24T08:26:11;13.27;;;2.50;;
54705;SDS011;40603;48.774;8.916;2022-12-24T08:28:36;12.07;;;2.17;;
54705;SDS011;40603;48.774;8.916;2022-12-24T08:31:02;11.95;;;2.70;;
54705;SDS011;40603;48.774;8.916;2022-12-24T08:33:27;15.23;;;2.33;;
54705;SDS011;40603;48.774;8.916;2022-12-24T08:35:53;10.57;;;2.42;;
54705;SDS011;40603;48.774;8.916;2022-12-24T08:38:19;16.30;;;2.83;;
54705;SDS011;40603;48.774;8.916;2022-12-24T08:40:45;11.70;;;2.55;;
54705;SDS011;40603;48.774;8.916;2022-12-24T08:43:13;14.52;;;2.55;;
54705;SDS011;40603;48.774;8.916;2022-12-24T08:45:39;18.75;;;2.60;;
54705;SDS011;40603;48.774;8.916;2022-12-24T08:48:05;12.43;;;2.30;;
54705;SDS011;40603;48.774;8.916;2022-12-24T08:50:31;12.23;;;1.98;;
54705;SDS011;40603;48.774;8.916;2022-12-24T08:52:56;15.27;;;2.40;;
54705;SDS011;40603;48.774;8.916;2022-12-24T08:55:27;13.07;;;1.80;;
54705;SDS011;40603;48.774;8.916;2022-12-24T08:57:52;11.10;;;1.90;;
54705;SDS011;40603;48.774;8.916;2022-12-24T09:00:17;14.70;;;2.25;;
54705;SDS011;40603;48.774;8.916;2022-12-24T09:02:43;17.30;;;2.08;;
54705;SDS011;40603;48.774;8.916;2022-12-24T09:05:08;11.68;;;3.13;;
54705;SDS011;40603;48.774;8.916;2022-12-24T09:07:33;17.27;;;2.35;;
54705;SDS011;40603;48.774;8.916;2022-12-24T09:09:59;18.60;;;2.70;;
54705;SDS011;40603;48.774;8.916;2022-12-24T09:12:24;12.00;;;2.10;;
54705;SDS011;40603;48.774;8.916;2022-12-24T09:14:50;10.55;;;2.25;;
54705;SDS011;40603;48.774;8.916;2022-12-24T09:17:15;11.50;;;2.40;;
54705;SDS011;40603;48.774;8.916;2022-12-24T09:19:41;16.38;;;3.25;;
54705;SDS011;40603;48.774;8.916;2022-12-24T09:22:06;12.52;;;1.63;;
54705;SDS011;40603;48.774;8.916;2022-12-24T09:24:32;8.52;;;2.30;;
54705;SDS011;40603;48.774;8.916;2022-12-24T09:26:57;16.60;;;2.33;;
54705;SDS011;40603;48.774;8.916;2022-12-24T09:29:23;15.95;;;2.47;;
54705;SDS011;40603;48.774;8.916;2022-12-24T09:31:48;9.48;;;1.95;;
54705;SDS011;40603;48.774;8.916;2022-12-24T09:34:14;16.38;;;3.10;;
54705;SDS011;40603;48.774;8.916;2022-12-24T09:36:39;12.18;;;1.85;;
54705;SDS011;40603;48.774;8.916;2022-12-24T09:39:04;9.52;;;2.10;;
54705;SDS011;40603;48.774;8.916;2022-12-24T09:44:30;19.10;;;2.50;;
54705;SDS011;40603;48.774;8.916;2022-12-24T09:47:00;14.40;;;2.80;;
54705;SDS011;40603;48.774;8.916;2022-12-24T09:49:35;11.05;;;2.10;;
54705;SDS011;40603;48.774;8.916;2022-12-24T09:52:09;11.93;;;2.67;;
54705;SDS011;40603;48.774;8.916;2022-12-24T09:54:39;17.90;;;2.60;;
54705;SDS011;40603;48.774;8.916;2022-12-24T09:57:07;10.20;;;2.45;;
54705;SDS011;40603;48.774;8.916;2022-12-24T09:59:45;18.33;;;2.50;;
54705;SDS011;40603;48.774;8.916;2022-12-24T10:02:15;15.75;;;3.17;;
54705;SDS011;40603;48.774;8.916;2022-12-24T10:07:11;15.27;;;2.60;;
54705;SDS011;40603;48.774;8.916;2022-12-24T10:12:24;13.00;;;2.13;;
54705;SDS011;40603;48.774;8.916;2022-12-24T10:15:24;9.73;;;2.38;;
54705;SDS011;40603;48.774;8.916;2022-12-24T10:25:46;18.92;;;2.22;;
54705;SDS011;40603;48.774;8.916;2022-12-24T10:28:19;17.27;;;2.40;;
54705;SDS011;40603;48.774;8.916;2022-12-24T10:30:54;12.82;;;2.60;;
54705;SDS011;40603;48.774;8.916;2022-12-24T10:33:30;17.77;;;2.77;;
54705;SDS011;40603;48.774;8.916;2022-12-24T10:35:59;11.55;;;2.33;;
54705;SDS011;40603;48.774;8.916;2022-12-24T10:38:24;10.27;;;2.40;;
54705;SDS011;40603;48.774;8.916;2022-12-24T10:40:51;18.17;;;2.95;;
54705;SDS011;40603;48.774;8.916;2022-12-24T10:43:21;11.82;;;1.90;;
54705;SDS011;40603;48.774;8.916;2022-12-24T10:48:27;14.68;;;2.13;;
54705;SDS011;40603;48.774;8.916;2022-12-24T10:51:04;15.80;;;2.28;;
54705;SDS011;40603;48.774;8.916;2022-12-24T10:53:41;19.60;;;2.85;;
54705;SDS011;40603;48.774;8.916;2022-12-24T10:56:10;15.50;;;2.08;;
54705;SDS011;40603;48.774;8.916;2022-12-24T10:58:41;10.48;;;2.50;;
54705;SDS011;40603;48.774;8.916;2022-12-24T11:01:08;10.02;;;2.03;;
54705;SDS011;40603;48.774;8.916;2022-12-24T11:03:33;13.15;;;2.38;;
54705;SDS011;40603;48.774;8.916;2022-12-24T11:08:31;7.68;;;1.95;;
54705;SDS011;40603;48.774;8.916;2022-12-24T11:11:02;13.70;;;2.88;;
54705;SDS011;40603;48.774;8.916;2022-12-24T11:13:30;15.60;;;2.30;;
54705;SDS011;40603;48.774;8.916;2022-12-24T11:15:58;9.88;;;2.30;;
54705;SDS011;40603;48.774;8.916;2022-12-24T11:18:26;14.63;;;2.08;;
54705;SDS011;40603;48.774;8.916;2022-12-24T11:20:51;12.10;;;2.60;;
54705;SDS011;40603;48.774;8.916;2022-12-24T11:23:16;12.65;;;2.47;;
54705;SDS011;40603;48.774;8.916;2022-12-24T11:25:46;8.98;;;2.28;;
54705;SDS011;40603;48.774;8.916;2022-12-24T11:28:23;10.32;;;2.25;;
54705;SDS011;40603;48.774;8.916;2022-12-24T11:31:03;8.88;;;1.90;;
54705;SDS011;40603;48.774;8.916;2022-12-24T11:33:44;10.02;;;2.20;;
54705;SDS011;40603;48.774;8.916;2022-12-24T11:36:11;9.23;;;2.42;;
54705;SDS011;40603;48.774;8.916;2022-12-24T11:38:37;22.73;;;3.65;;
54705;SDS011;40603;48.774;8.916;2022-12-24T11:41:04;10.98;;;2.22;;
54705;SDS011;40603;48.774;8.916;2022-12-24T11:43:39;9.38;;;1.95;;
54705;SDS011;40603;48.774;8.916;2022-12-24T11:48:38;15.57;;;2.78;;
54705;SDS011;40603;48.774;8.916;2022-12-24T11:51:05;14.48;;;2.50;;
54705;SDS011;40603;48.774;8.916;2022-12-24T11:53:35;15.02;;;2.70;;
54705;SDS011;40603;48.774;8.916;2022-12-24T11:56:06;11.80;;;2.05;;
54705;SDS011;40603;48.774;8.916;2022-12-24T11:58:44;14.55;;;2.33;;
54705;SDS011;40603;48.774;8.916;2022-12-24T12:01:17;15.10;;;3.15;;
54705;SDS011;40603;48.774;8.916;2022-12-24T12:03:48;12.20;;;2.40;;
54705;SDS011;40603;48.774;8.916;2022-12-24T12:06:32;9.82;;;2.22;;
54705;SDS011;40603;48.774;8.916;2022-12-24T12:09:02;16.73;;;2.65;;
54705;SDS011;40603;48.774;8.916;2022-12-24T12:11:31;10.55;;;2.80;;
54705;SDS011;40603;48.774;8.916;2022-12-24T12:13:58;15.85;;;2.78;;
54705;SDS011;40603;48.774;8.916;2022-12-24T12:19:24;13.82;;;2.58;;
54705;SDS011;40603;48.774;8.916;2022-12-24T12:21:51;14.13;;;2.50;;
54705;SDS011;40603;48.774;8.916;2022-12-24T12:24:35;8.23;;;2.35;;
54705;SDS011;40603;48.774;8.916;2022-12-24T12:27:10;14.90;;;2.55;;
54705;SDS011;40603;48.774;8.916;2022-12-24T12:29:43;15.75;;;2.13;;
54705;SDS011;40603;48.774;8.916;2022-12-24T12:32:13;9.65;;;2.22;;
54705;SDS011;40603;48.774;8.916;2022-12-24T12:34:58;13.82;;;2.25;;
54705;SDS011;40603;48.774;8.916;2022-12-24T12:37:34;11.48;;;1.83;;
54705;SDS011;40603;48.774;8.916;2022-12-24T12:40:02;13.95;;;2.42;;
54705;SDS011;40603;48.774;8.916;2022-12-24T12:42:32;9.23;;;2.25;;
54705;SDS011;40603;48.774;8.916;2022-12-24T12:50:32;15.63;;;2.17;;
54705;SDS011;40603;48.774;8.916;2022-12-24T12:53:03;12.75;;;2.03;;
54705;SDS011;40603;48.774;8.916;2022-12-24T12:55:41;14.27;;;2.45;;
54705;SDS011;40603;48.774;8.916;2022-12-24T12:58:15;10.15;;;1.60;;
54705;SDS011;40603;48.774;8.916;2022-12-24T13:01:04;15.40;;;2.72;;
54705;SDS011;40603;48.774;8.916;2022-12-24T13:07:30;10.38;;;1.88;;
54705;SDS011;40603;48.774;8.916;2022-12-24T13:10:29;15.55;;;2.58;;
54705;SDS011;40603;48.774;8.916;2022-12-24T13:12:58;8.70;;;2.05;;
54705;SDS011;40603;48.774;8.916;2022-12-24T13:15:38;12.18;;;2.33;;
54705;SDS011;40603;48.774;8.916;2022-12-24T13:21:25;13.57;;;2.58;;
54705;SDS011;40603;48.774;8.916;2022-12-24T13:26:37;11.90;;;2.83;;
54705;SDS011;40603;48.774;8.916;2022-12-24T13:31:55;12.73;;;2.42;;
54705;SDS011;40603;48.774;8.916;2022-12-24T13:47:57;9.52;;;1.90;;
54705;SDS011;40603;48.774;8.916;2022-12-24T13:50:33;10.18;;;2.13;;
54705;SDS011;40603;48.774;8.916;2022-12-24T13:53:00;11.88;;;2.22;;
54705;SDS011;40603;48.774;8.916;2022-12-24T13:55:26;10.55;;;2.55;;
54705;SDS011;40603;48.774;8.916;2022-12-24T13:57:52;13.32;;;1.92;;
54705;SDS011;40603;48.774;8.916;2022-12-24T14:02:46;11.98;;;1.92;;
54705;SDS011;40603;48.774;8.916;2022-12-24T14:08:11;9.85;;;1.70;;
54705;SDS011;40603;48.774;8.916;2022-12-24T14:10:41;7.57;;;2.00;;
54705;SDS011;40603;48.774;8.916;2022-12-24T14:16:06;10.48;;;1.95;;
54705;SDS011;40603;48.774;8.916;2022-12-24T14:18:41;11.30;;;2.38;;
54705;SDS011;40603;48.774;8.916;2022-12-24T14:21:15;12.77;;;2.95;;
54705;SDS011;40603;48.774;8.916;2022-12-24T14:23:50;11.48;;;2.20;;
54705;SDS011;40603;48.774;8.916;2022-12-24T14:26:19;10.63;;;2.70;;
54705;SDS011;40603;48.774;8.916;2022-12-24T14:28:56;13.20;;;2.38;;
54705;SDS011;40603;48.774;8.916;2022-12-24T14:31:24;15.07;;;2.03;;
54705;SDS011;40603;48.774;8.916;2022-12-24T14:33:50;15.48;;;2.35;;
54705;SDS011;40603;48.774;8.916;2022-12-24T14:36:17;14.38;;;2.97;;
54705;SDS011;40603;48.774;8.916;2022-12-24T14:38:44;15.02;;;2.17;;
54705;SDS011;40603;48.774;8.916;2022-12-24T14:49:57;11.75;;;2.38;;
54705;SDS011;40603;48.774;8.916;2022-12-24T14:52:39;12.13;;;2.13;;
54705;SDS011;40603;48.774;8.916;2022-12-24T14:55:30;15.27;;;2.72;;
54705;SDS011;40603;48.774;8.916;2022-12-24T15:00:43;9.52;;;2.40;;
54705;SDS011;40603;48.774;8.916;2022-12-24T15:03:12;14.23;;;3.00;;
54705;SDS011;40603;48.774;8.916;2022-12-24T15:05:38;7.85;;;2.20;;
54705;SDS011;40603;48.774;8.916;2022-12-24T15:08:08;13.02;;;3.47;;
54705;SDS011;40603;48.774;8.916;2022-12-24T15:10:37;11.90;;;2.50;;
54705;SDS011;40603;48.774;8.916;2022-12-24T15:13:04;16.50;;;2.65;;
54705;SDS011;40603;48.774;8.916;2022-12-24T15:15:30;15.75;;;2.90;;
54705;SDS011;40603;48.774;8.916;2022-12-24T15:17:56;14.75;;;3.28;;
54705;SDS011;40603;48.774;8.916;2022-12-24T15:20:23;11.43;;;3.22;;
54705;SDS011;40603;48.774;8.916;2022-12-24T15:22:50;12.93;;;2.50;;
54705;SDS011;40603;48.774;8.916;2022-12-24T15:25:22;11.25;;;2.70;;
54705;SDS011;40603;48.774;8.916;2022-12-24T15:27:55;9.27;;;2.22;;
54705;SDS011;40603;48.774;8.916;2022-12-24T15:30:22;11.73;;;2.00;;
54705;SDS011;40603;48.774;8.916;2022-12-24T15:32:50;9.25;;;2.42;;
54705;SDS011;40603;48.774;8.916;2022-12-24T15:38:25;10.68;;;1.90;;
54705;SDS011;40603;48.774;8.916;2022-12-24T15:40:51;7.93;;;1.88;;
54705;SDS011;40603;48.774;8.916;2022-12-24T15:43:17;7.85;;;1.92;;
54705;SDS011;40603;48.774;8.916;2022-12-24T15:45:43;10.27;;;2.55;;
54705;SDS011;40603;48.774;8.916;2022-12-24T15:48:17;14.07;;;2.53;;
54705;SDS011;40603;48.774;8.916;2022-12-24T15:50:50;11.50;;;2.53;;
54705;SDS011;40603;48.774;8.916;2022-12-24T15:53:31;14.65;;;3.08;;
54705;SDS011;40603;48.774;8.916;2022-12-24T15:56:00;11.40;;;2.78;;
54705;SDS011;40603;48.774;8.916;2022-12-24T15:58:40;13.82;;;2.40;;
54705;SDS011;40603;48.774;8.916;2022-12-24T16:03:53;11.23;;;2.67;;
54705;SDS011;40603;48.774;8.916;2022-12-24T16:06:20;11.68;;;2.42;;
54705;SDS011;40603;48.774;8.916;2022-12-24T16:08:45;6.43;;;2.10;;
54705;SDS011;40603;48.774;8.916;2022-12-24T16:14:10;12.85;;;4.18;;
54705;SDS011;40603;48.774;8.916;2022-12-24T16:16:41;31.13;;;9.15;;
54705;SDS011;40603;48.774;8.916;2022-12-24T16:19:20;23.67;;;7.35;;
54705;SDS011;40603;48.774;8.916;2022-12-24T16:21:49;24.98;;;8.63;;
54705;SDS011;40603;48.774;8.916;2022-12-24T16:24:20;21.92;;;7.60;;
54705;SDS011;40603;48.774;8.916;2022-12-24T16:26:47;17.05;;;7.10;;
54705;SDS011;40603;48.774;8.916;2022-12-24T16:29:13;21.17;;;6.43;;